Time;durP1;ratioP1;P1;durP2;ratioP2;P2;SDS_P1;SDS_P2;PMS_P1;PMS_P2;Temp;Humidity;BMP_temperature;BMP_pressure;BME280_temperature;BME280_humidity;BME280_pressure;Samples;Min_cycle;Max_cycle;Signal;HPM_P1;HPM_P2
2022/03/09 00:02:38;;;;;;;;;;;;;;;1.45;46.69;100438.88;12203384;19;19914;-79
2022/03/09 00:06:40;;;;;;;;;;;;;;;1.46;46.87;100437.84;12212107;19;19915;-80
2022/03/09 00:10:41;;;;;;;;;;;;;;;1.44;46.88;100442.63;12184709;19;19978;-80
2022/03/09 00:14:43;;;;;;;;;;;;;;;1.41;47.13;100448.41;12202219;19;19971;-79
2022/03/09 00:18:45;;;;;;;;;;;;;;;1.45;47.11;100444.31;12200204;19;19959;-80
2022/03/09 00:22:46;;;;;;;;;;;;;;;1.46;46.94;100448.72;12193396;19;19911;-80
2022/03/09 00:26:48;;;;;;;;;;;;;;;1.43;47.31;100440.91;12200126;19;20627;-79
2022/03/09 00:30:50;;;;;;;;;;;;;;;1.46;47.01;100446.00;12212414;19;19907;-79
2022/03/09 00:34:51;;;;;;;;;;;;;;;1.47;47.27;100443.13;12187576;19;20375;-80
2022/03/09 00:38:53;;;;;;;;;;;;;;;1.48;46.71;100450.25;12207901;19;19986;-81
2022/03/09 00:42:55;;;;;;;;;;;;;;;1.43;47.27;100452.66;12203808;19;19907;-80
2022/03/09 00:46:57;;;;;;;;;;;;;;;1.40;47.27;100453.00;12183336;19;19982;-80
2022/03/09 00:50:58;;;;;;;;;;;;;;;1.37;47.10;100450.63;12209837;19;19918;-80
2022/03/09 00:55:00;;;;;;;;;;;;;;;1.30;47.31;100450.47;12208808;19;19921;-81
2022/03/09 00:59:02;;;;;;;;;;;;;;;1.26;47.54;100459.16;12185466;19;19970;-79
2022/03/09 01:03:03;;;;;;;;;;;;;;;1.17;47.70;100452.88;12209808;19;20330;-79
2022/03/09 01:07:05;;;;;;;;;;;;;;;1.08;47.80;100457.50;12209635;19;19911;-79
2022/03/09 01:11:07;;;;;;;;;;;;;;;1.00;48.19;100456.66;12185844;19;19915;-79
2022/03/09 01:15:09;;;;;;;;;;;;;;;0.94;47.72;100469.03;12209291;19;19906;-79
2022/03/09 01:19:10;;;;;;;;;;;;;;;0.90;47.92;100463.09;12208731;19;20340;-79
2022/03/09 01:23:12;;;;;;;;;;;;;;;0.87;48.24;100458.03;12182379;19;20396;-80
2022/03/09 01:27:14;;;;;;;;;;;;;;;0.82;48.47;100463.09;12202400;19;19911;-79
2022/03/09 01:31:15;;;;;;;;;;;;;;;0.72;48.44;100453.47;12201202;19;19979;-79
2022/03/09 01:35:18;;;;;;;;;;;;;;;0.64;48.80;100448.88;12184826;19;19964;-79
2022/03/09 01:39:20;;;;;;;;;;;;;;;0.59;48.61;100454.81;12208008;19;20541;-79
2022/03/09 01:43:24;;;;;;;;;;;;;;;0.54;49.05;100459.06;12187102;19;19962;-79
2022/03/09 01:47:26;;;;;;;;;;;;;;;0.47;49.04;100441.75;12203661;19;19946;-79
2022/03/09 01:51:28;;;;;;;;;;;;;;;0.43;49.25;100439.38;12210086;19;19931;-79
2022/03/09 01:55:29;;;;;;;;;;;;;;;0.40;49.10;100436.16;12183992;19;20013;-79
2022/03/09 01:59:31;;;;;;;;;;;;;;;0.36;49.11;100432.13;12202705;19;20039;-79
2022/03/09 02:03:32;;;;;;;;;;;;;;;0.34;49.92;100426.84;12202090;19;19986;-79
2022/03/09 02:11:56;;;;;;;;;;;;;;;0.34;49.89;100424.13;12205825;19;19911;-80
2022/03/09 02:15:57;;;;;;;;;;;;;;;0.33;49.74;100422.44;12197292;19;19915;-79
2022/03/09 02:19:59;;;;;;;;;;;;;;;0.31;49.80;100420.91;12175059;19;19906;-79
2022/03/09 02:24:01;;;;;;;;;;;;;;;0.28;49.72;100422.09;12199018;19;19914;-78
2022/03/09 02:28:03;;;;;;;;;;;;;;;0.24;50.29;100418.03;12206297;19;19922;-79
2022/03/09 02:32:05;;;;;;;;;;;;;;;0.20;50.55;100422.06;12182118;19;19938;-79
2022/03/09 02:36:06;;;;;;;;;;;;;;;0.13;50.77;100418.34;12203338;19;19974;-79
2022/03/09 02:40:10;;;;;;;;;;;;;;;0.06;50.72;100417.31;12206402;19;19931;-78
2022/03/09 02:44:11;;;;;;;;;;;;;;;0.03;50.77;100413.09;12175239;19;19966;-78
2022/03/09 02:48:13;;;;;;;;;;;;;;;-0.01;50.69;100412.56;12190416;19;19924;-78
2022/03/09 02:52:16;;;;;;;;;;;;;;;-0.02;51.08;100424.44;12202950;19;19911;-79
2022/03/09 02:56:17;;;;;;;;;;;;;;;-0.05;51.36;100421.22;12168821;19;19978;-79
2022/03/09 03:00:19;;;;;;;;;;;;;;;-0.10;51.48;100426.25;12213114;19;19922;-80
2022/03/09 03:04:21;;;;;;;;;;;;;;;-0.15;51.57;100415.94;12212769;19;20332;-80
2022/03/09 03:08:23;;;;;;;;;;;;;;;-0.20;51.57;100415.59;12235885;19;20374;-79
2022/03/09 03:12:24;;;;;;;;;;;;;;;-0.19;51.64;100421.84;12212296;19;19997;-79
2022/03/09 03:16:26;;;;;;;;;;;;;;;-0.21;51.67;100413.03;12195170;19;19915;-79
2022/03/09 03:20:27;;;;;;;;;;;;;;;-0.24;51.68;100416.91;12214597;19;19986;-79
2022/03/09 03:24:29;;;;;;;;;;;;;;;-0.22;51.57;100419.47;12210964;19;20330;-80
2022/03/09 03:28:31;;;;;;;;;;;;;;;-0.22;52.02;100417.59;12181420;19;20190;-79
2022/03/09 03:32:32;;;;;;;;;;;;;;;-0.24;51.77;100419.63;12214266;19;19927;-79
2022/03/09 03:36:34;;;;;;;;;;;;;;;-0.26;52.17;100421.66;12202968;19;19994;-79
2022/03/09 03:40:36;;;;;;;;;;;;;;;-0.26;52.26;100414.38;12181892;19;19968;-79
2022/03/09 03:44:38;;;;;;;;;;;;;;;-0.30;52.54;100404.91;12203488;19;19998;-79
2022/03/09 03:48:40;;;;;;;;;;;;;;;-0.38;52.42;100412.16;12213399;19;19907;-80
2022/03/09 03:52:41;;;;;;;;;;;;;;;-0.48;52.67;100418.56;12186264;19;20026;-79
2022/03/09 03:56:43;;;;;;;;;;;;;;;-0.55;52.79;100417.50;12204996;19;19907;-79
2022/03/09 04:00:44;;;;;;;;;;;;;;;-0.60;52.83;100419.81;12210483;19;19946;-79
2022/03/09 04:04:47;;;;;;;;;;;;;;;-0.62;52.89;100427.28;12206520;19;19911;-80
2022/03/09 04:08:48;;;;;;;;;;;;;;;-0.61;52.90;100434.38;12228340;19;19915;-80
2022/03/09 04:12:50;;;;;;;;;;;;;;;-0.61;52.71;100434.38;12219537;19;19919;-81
2022/03/09 04:16:51;;;;;;;;;;;;;;;-0.63;53.29;100435.56;12202578;19;19903;-81
2022/03/09 04:20:53;;;;;;;;;;;;;;;-0.69;53.46;100428.91;12211592;19;19995;-80
2022/03/09 04:24:54;;;;;;;;;;;;;;;-0.75;53.19;100433.13;12211562;19;19922;-80
2022/03/09 04:28:56;;;;;;;;;;;;;;;-0.83;53.72;100445.75;12181791;19;20313;-80
2022/03/09 04:32:58;;;;;;;;;;;;;;;-0.88;54.26;100438.13;12203470;19;19930;-80
2022/03/09 04:36:59;;;;;;;;;;;;;;;-0.92;54.48;100437.63;12218328;19;19974;-79
2022/03/09 04:41:01;;;;;;;;;;;;;;;-0.94;54.45;100428.81;12189722;19;19994;-79
2022/03/09 04:45:03;;;;;;;;;;;;;;;-0.94;54.06;100428.81;12201617;19;19927;-79
2022/03/09 04:49:05;;;;;;;;;;;;;;;-0.93;53.61;100437.75;12199843;19;19970;-80
2022/03/09 04:53:06;;;;;;;;;;;;;;;-0.92;53.70;100440.31;12188666;19;20357;-80
2022/03/09 04:57:08;;;;;;;;;;;;;;;-0.87;53.71;100431.72;12204915;19;19993;-80
2022/03/09 05:01:09;;;;;;;;;;;;;;;-0.83;53.70;100432.22;12214358;19;19984;-80
2022/03/09 05:05:12;;;;;;;;;;;;;;;-0.82;53.56;100432.09;12176867;19;19915;-79
2022/03/09 05:09:14;;;;;;;;;;;;;;;-0.79;53.82;100430.91;12212700;19;19915;-79
2022/03/09 05:13:16;;;;;;;;;;;;;;;-0.76;54.06;100442.25;12195506;19;19934;-79
2022/03/09 05:17:20;;;;;;;;;;;;;;;-0.78;53.82;100449.69;12209014;19;19946;-80
2022/03/09 05:21:21;;;;;;;;;;;;;;;-0.76;53.51;100453.09;12204009;19;19931;-79
2022/03/09 05:25:23;;;;;;;;;;;;;;;-0.67;53.84;100462.09;12185340;19;19970;-79
2022/03/09 05:29:26;;;;;;;;;;;;;;;-0.64;53.46;100464.47;12207874;19;19987;-78
2022/03/09 05:33:27;;;;;;;;;;;;;;;-0.64;53.59;100463.63;12209234;19;19927;-80
2022/03/09 05:37:34;;;;;;;;;;;;;;;-0.62;53.12;100465.19;12183919;19;19923;-80
2022/03/09 05:41:36;;;;;;;;;;;;;;;-0.58;53.33;100469.25;12212585;19;19986;-80
2022/03/09 05:45:37;;;;;;;;;;;;;;;-0.56;53.47;100467.25;12208670;19;20309;-78
2022/03/09 05:49:39;;;;;;;;;;;;;;;-0.56;53.54;100469.94;12190921;19;19931;-79
2022/03/09 05:53:41;;;;;;;;;;;;;;;-0.55;53.63;100470.78;12207508;19;19927;-79
2022/03/09 05:57:42;;;;;;;;;;;;;;;-0.57;53.55;100472.78;12202652;19;19919;-78
2022/03/09 06:01:44;;;;;;;;;;;;;;;-0.58;53.36;100474.66;12178872;19;19918;-79
2022/03/09 06:05:46;;;;;;;;;;;;;;;-0.56;53.78;100472.66;12201121;19;19974;-79
2022/03/09 06:09:49;;;;;;;;;;;;;;;-0.53;53.48;100477.75;12204461;19;19923;-78
2022/03/09 06:13:51;;;;;;;;;;;;;;;-0.49;53.37;100498.06;12179403;19;19926;-79
2022/03/09 06:17:52;;;;;;;;;;;;;;;-0.43;53.55;100490.31;12197600;19;19958;-78
2022/03/09 06:21:54;;;;;;;;;;;;;;;-0.37;53.91;100493.22;12198611;19;19919;-78
2022/03/09 06:25:55;;;;;;;;;;;;;;;-0.34;54.00;100495.59;12173473;19;19911;-78
2022/03/09 06:29:59;;;;;;;;;;;;;;;-0.26;55.70;100497.50;12199252;19;19979;-79
2022/03/09 06:34:01;;;;;;;;;;;;;;;-0.12;54.21;100502.28;12189096;19;19932;-79
2022/03/09 06:38:02;;;;;;;;;;;;;;;-0.09;54.00;100499.25;12191661;19;19906;-80
2022/03/09 06:42:04;;;;;;;;;;;;;;;-0.06;54.13;100496.22;12213775;19;19928;-80
2022/03/09 06:46:07;;;;;;;;;;;;;;;-0.01;54.00;100498.41;12209637;19;19915;-79
2022/03/09 06:50:15;;;;;;;;;;;;;;;0.02;53.94;100505.38;12196603;19;19925;-80
2022/03/09 06:54:17;;;;;;;;;;;;;;;0.07;53.98;100509.28;12205785;19;19921;-79
2022/03/09 06:58:19;;;;;;;;;;;;;;;0.18;54.10;100513.56;12200323;19;19911;-79
2022/03/09 07:02:21;;;;;;;;;;;;;;;0.32;53.77;100523.75;12206149;19;19931;-78
2022/03/09 07:06:25;;;;;;;;;;;;;;;0.53;53.31;100530.56;12204906;19;19964;-79
2022/03/09 07:10:28;;;;;;;;;;;;;;;0.70;52.99;100521.44;12195463;19;19917;-79
2022/03/09 07:14:30;;;;;;;;;;;;;;;0.93;52.69;100527.06;12216777;19;20452;-79
2022/03/09 07:18:31;;;;;;;;;;;;;;;1.16;52.32;100526.34;12205022;19;19978;-79
2022/03/09 07:22:33;;;;;;;;;;;;;;;1.38;52.04;100519.38;12172660;19;19918;-80
2022/03/09 07:26:40;;;;;;;;;;;;;;;1.60;51.55;100527.63;12206353;19;19987;-79
2022/03/09 07:30:42;;;;;;;;;;;;;;;1.86;51.13;100539.28;12210862;19;19970;-79
2022/03/09 07:34:48;;;;;;;;;;;;;;;2.07;50.82;100547.66;12198371;19;19911;-80
2022/03/09 07:38:49;;;;;;;;;;;;;;;2.29;50.70;100546.06;12219240;19;19911;-79
2022/03/09 07:43:11;;;;;;;;;;;;;;;2.54;50.25;100554.91;12205056;19;19917;-78
2022/03/09 07:47:20;;;;;;;;;;;;;;;2.76;50.37;100569.56;12189742;19;19907;-79
2022/03/09 07:51:28;;;;;;;;;;;;;;;3.01;49.97;100566.69;12211180;19;19933;-79
2022/03/09 07:55:30;;;;;;;;;;;;;;;3.26;49.49;100576.31;12186122;19;20318;-79
2022/03/09 07:59:33;;;;;;;;;;;;;;;3.55;49.12;100578.28;12200473;19;20363;-79
2022/03/09 08:03:34;;;;;;;;;;;;;;;3.82;48.07;100584.13;12212036;19;19922;-79
2022/03/09 08:07:41;;;;;;;;;;;;;;;4.10;46.15;100582.47;12180696;19;19915;-78
2022/03/09 08:11:43;;;;;;;;;;;;;;;4.44;45.82;100589.19;12206306;19;19923;-79
2022/03/09 08:15:49;;;;;;;;;;;;;;;4.65;45.28;100574.75;12195659;19;20244;-79
2022/03/09 08:19:51;;;;;;;;;;;;;;;4.83;45.66;100581.66;12186563;19;19939;-79
2022/03/09 08:23:53;;;;;;;;;;;;;;;4.83;45.39;100579.75;12207293;19;20377;-79
2022/03/09 08:27:57;;;;;;;;;;;;;;;4.93;45.09;100569.34;12207849;19;19938;-79
2022/03/09 08:31:59;;;;;;;;;;;;;;;5.09;45.53;100575.63;12174735;19;20003;-80
2022/03/09 08:36:00;;;;;;;;;;;;;;;5.18;44.85;100572.56;12198735;19;19978;-79
2022/03/09 08:40:03;;;;;;;;;;;;;;;5.25;44.34;100580.81;12208174;19;19928;-79
2022/03/09 08:44:06;;;;;;;;;;;;;;;5.33;44.27;100585.31;12180751;19;19914;-79
2022/03/09 08:48:08;;;;;;;;;;;;;;;5.46;44.26;100594.44;12208072;19;19928;-79
2022/03/09 08:52:10;;;;;;;;;;;;;;;5.58;44.03;100594.75;12215582;19;19919;-79
2022/03/09 08:56:12;;;;;;;;;;;;;;;5.59;43.87;100585.53;12176413;19;19915;-79
2022/03/09 09:00:27;;;;;;;;;;;;;;;5.80;43.37;100583.75;12211154;19;19939;-79
2022/03/09 09:04:28;;;;;;;;;;;;;;;5.99;42.86;100588.56;12178846;19;19963;-79
2022/03/09 09:08:31;;;;;;;;;;;;;;;6.00;42.08;100582.03;12201531;19;19922;-79
2022/03/09 09:12:33;;;;;;;;;;;;;;;6.20;42.75;100581.31;12201239;19;19955;-79
2022/03/09 09:16:41;;;;;;;;;;;;;;;6.44;42.45;100585.44;12184317;19;19919;-78
2022/03/09 09:20:43;;;;;;;;;;;;;;;6.63;41.97;100576.44;12202694;19;20374;-78
2022/03/09 09:24:44;;;;;;;;;;;;;;;6.66;42.01;100576.03;12198369;19;19918;-78
2022/03/09 09:28:48;;;;;;;;;;;;;;;6.84;41.75;100570.84;12176386;19;19922;-79
2022/03/09 09:32:52;;;;;;;;;;;;;;;7.03;40.80;100579.31;12203775;19;19915;-79
2022/03/09 09:36:54;;;;;;;;;;;;;;;7.15;41.35;100574.88;12200173;19;19918;-78
2022/03/09 09:40:56;;;;;;;;;;;;;;;7.21;40.86;100573.22;12174970;19;19923;-79
2022/03/09 09:45:00;;;;;;;;;;;;;;;7.33;40.05;100566.06;12201225;19;19948;-79
2022/03/09 09:49:12;;;;;;;;;;;;;;;7.57;40.04;100575.53;12209544;19;19914;-79
2022/03/09 09:53:33;;;;;;;;;;;;;;;7.53;40.61;100571.53;12186585;19;19918;-79
2022/03/09 09:57:37;;;;;;;;;;;;;;;7.49;39.64;100570.25;12197890;19;19938;-79
2022/03/09 10:01:41;;;;;;;;;;;;;;;7.62;39.43;100572.19;12178562;19;20314;-79
2022/03/09 10:06:10;;;;;;;;;;;;;;;7.59;38.94;100565.22;12197321;19;20306;-79
2022/03/09 10:10:24;;;;;;;;;;;;;;;7.69;39.75;100571.09;12204444;19;19911;-79
2022/03/09 10:14:48;;;;;;;;;;;;;;;7.93;39.49;100572.31;12174789;19;19914;-79
2022/03/09 10:18:58;;;;;;;;;;;;;;;8.03;39.01;100574.66;12201200;19;19918;-79
2022/03/09 10:23:24;;;;;;;;;;;;;;;8.01;38.82;100570.44;12168644;19;19929;-78
2022/03/09 10:27:38;;;;;;;;;;;;;;;8.17;38.89;100570.78;12193114;19;19911;-79
2022/03/09 10:32:02;;;;;;;;;;;;;;;8.32;38.88;100580.69;12171984;19;19935;-79
2022/03/09 10:36:04;;;;;;;;;;;;;;;8.43;38.47;100574.56;12182708;19;19914;-80
2022/03/09 10:40:11;;;;;;;;;;;;;;;8.54;37.72;100578.53;12208905;19;19923;-80
2022/03/09 10:44:14;;;;;;;;;;;;;;;8.79;37.45;100578.63;12178316;19;19911;-81
2022/03/09 10:48:19;;;;;;;;;;;;;;;8.70;37.35;100593.69;12201474;19;21036;-79
2022/03/09 10:52:51;;;;;;;;;;;;;;;8.80;37.74;100589.38;12192730;19;19910;-80
2022/03/09 10:57:03;;;;;;;;;;;;;;;9.10;37.79;100573.16;12213893;19;20345;-80
2022/03/09 11:01:14;;;;;;;;;;;;;;;9.23;36.79;100572.22;12201880;19;19910;-81
2022/03/09 11:05:17;;;;;;;;;;;;;;;9.51;36.39;100569.03;12178355;19;19986;-80
2022/03/09 11:09:44;;;;;;;;;;;;;;;9.58;36.12;100564.31;12195513;19;19927;-80
2022/03/09 11:13:49;;;;;;;;;;;;;;;9.77;35.34;100561.59;12175858;19;19962;-82
2022/03/09 11:17:52;;;;;;;;;;;;;;;9.95;35.92;100550.63;12206920;19;20000;-80
2022/03/09 11:21:59;;;;;;;;;;;;;;;10.23;34.93;100546.50;12208271;19;19910;-80
2022/03/09 11:26:04;;;;;;;;;;;;;;;10.41;34.39;100540.16;12179415;19;20328;-80
2022/03/09 11:30:28;;;;;;;;;;;;;;;10.45;34.75;100545.00;12210313;19;20628;-79
2022/03/09 11:34:35;;;;;;;;;;;;;;;10.55;34.39;100532.59;12179637;19;20000;-80
2022/03/09 11:38:38;;;;;;;;;;;;;;;10.71;34.37;100524.53;12208167;19;19919;-80
2022/03/09 11:43:14;;;;;;;;;;;;;;;10.72;33.88;100514.34;12208822;19;19931;-79
2022/03/09 11:47:24;;;;;;;;;;;;;;;10.84;33.65;100512.47;12185159;19;19930;-79
2022/03/09 11:51:58;;;;;;;;;;;;;;;10.97;33.62;100502.31;12215392;19;19915;-79
2022/03/09 12:01:17;;;;;;;;;;;;;;;12.05;33.68;100496.41;12002350;19;2004456;-80
2022/03/09 12:05:49;;;;;;;;;;;;;;;12.69;32.86;100501.84;12182502;19;20272;-80
2022/03/09 12:10:56;;;;;;;;;;;;;;;13.75;32.62;100506.75;12207955;19;19929;-80
2022/03/09 12:15:07;;;;;;;;;;;;;;;13.96;30.90;100496.78;12206585;19;19937;-80
2022/03/09 12:19:12;;;;;;;;;;;;;;;14.41;30.42;100492.13;12206232;19;19940;-80
2022/03/09 12:23:32;;;;;;;;;;;;;;;;;;;;;
2022/03/09 12:32:41;;;;;;;;;;;;;;;15.60;28.42;100493.03;12204949;19;19979;-79
2022/03/09 12:36:47;;;;;;;;;;;;;;;15.82;28.34;100488.19;12199269;19;19922;-81
2022/03/09 12:46:15;;;;;;;;;;;;;;;16.58;27.77;100486.91;12198924;19;19929;-79
2022/03/09 12:50:57;;;;;;;;;;;;;;;17.06;27.58;100473.69;12180450;19;20349;-79
2022/03/09 12:55:30;;;;;;;;;;;;;;;17.55;26.91;100467.56;12172997;19;19910;-79
2022/03/09 12:59:37;;;;;;;;;;;;;;;17.81;26.18;100467.53;12192901;19;19911;-79
2022/03/09 13:03:44;;;;;;;;;;;;;;;17.90;26.28;100461.09;12209114;19;19918;-79
2022/03/09 13:08:03;;;;;;;;;;;;;;;18.17;25.80;100452.38;12174987;19;20434;-80
2022/03/09 13:12:14;;;;;;;;;;;;;;;18.35;25.53;100450.06;12200036;19;19934;-79
2022/03/09 13:16:16;;;;;;;;;;;;;;;18.58;25.79;100449.38;12204958;19;19914;-79
2022/03/09 13:20:20;;;;;;;;;;;;;;;17.92;25.68;100439.34;12184867;19;19983;-79
2022/03/09 13:24:25;;;;;;;;;;;;;;;16.78;26.04;100428.56;12194012;19;19923;-79
2022/03/09 13:28:28;;;;;;;;;;;;;;;15.89;26.30;100433.22;12172007;19;19910;-79
2022/03/09 13:32:37;;;;;;;;;;;;;;;15.50;26.90;100427.97;12207019;19;19982;-79
2022/03/09 13:36:39;;;;;;;;;;;;;;;15.08;27.16;100422.38;12191061;19;19974;-79
2022/03/09 13:40:47;;;;;;;;;;;;;;;14.83;27.48;100417.44;12174278;19;19914;-78
2022/03/09 13:45:03;;;;;;;;;;;;;;;15.34;27.17;100420.63;12195501;19;19911;-79
2022/03/09 13:49:14;;;;;;;;;;;;;;;16.02;26.68;100417.16;12200843;19;19925;-78
2022/03/09 13:53:18;;;;;;;;;;;;;;;15.74;26.82;100418.44;12184142;19;19925;-79
2022/03/09 13:57:26;;;;;;;;;;;;;;;15.30;26.38;100408.38;12184765;19;19929;-78
2022/03/09 14:01:32;;;;;;;;;;;;;;;14.75;27.16;100412.34;12173875;19;19926;-79
2022/03/09 14:05:40;;;;;;;;;;;;;;;14.30;27.70;100408.81;12191080;19;19910;-79
2022/03/09 14:10:05;;;;;;;;;;;;;;;13.94;28.08;100409.47;12203910;19;20241;-81
2022/03/09 14:14:12;;;;;;;;;;;;;;;13.49;28.31;100402.22;12167074;19;19986;-79
2022/03/09 14:18:17;;;;;;;;;;;;;;;13.26;28.23;100397.72;12196436;19;20447;-78
2022/03/09 14:22:19;;;;;;;;;;;;;;;13.05;28.73;100399.31;12177079;19;20449;-79
2022/03/09 14:26:27;;;;;;;;;;;;;;;13.09;28.78;100389.44;12201443;19;20256;-79
2022/03/09 14:30:31;;;;;;;;;;;;;;;13.05;29.15;100391.00;12190057;19;19914;-78
2022/03/09 14:34:33;;;;;;;;;;;;;;;13.16;29.12;100382.63;12177108;19;19926;-78
2022/03/09 14:38:41;;;;;;;;;;;;;;;13.16;29.16;100385.38;12195663;19;19931;-78
2022/03/09 14:42:43;;;;;;;;;;;;;;;13.17;29.46;100380.69;12197491;19;19911;-78
2022/03/09 14:46:48;;;;;;;;;;;;;;;13.23;29.20;100379.66;12163309;19;19946;-78
2022/03/09 14:50:51;;;;;;;;;;;;;;;13.37;29.39;100378.25;12198728;19;19919;-79
2022/03/09 14:54:53;;;;;;;;;;;;;;;13.51;29.12;100370.44;12190163;19;19918;-78
2022/03/09 14:58:54;;;;;;;;;;;;;;;13.70;28.88;100367.34;12180753;19;19914;-78
2022/03/09 15:02:56;;;;;;;;;;;;;;;13.85;28.74;100367.53;12211330;19;20432;-79
2022/03/09 15:06:58;;;;;;;;;;;;;;;14.39;28.34;100372.31;12214375;19;19919;-78
2022/03/09 15:11:08;;;;;;;;;;;;;;;14.75;28.14;100366.06;12186194;19;19906;-78
2022/03/09 15:15:13;;;;;;;;;;;;;;;15.14;27.67;100376.03;12207024;19;19934;-78
2022/03/09 15:19:24;;;;;;;;;;;;;;;15.42;27.17;100370.16;12182602;19;19982;-78
2022/03/09 15:23:27;;;;;;;;;;;;;;;15.54;26.71;100374.66;12211315;19;19970;-78
2022/03/09 15:27:41;;;;;;;;;;;;;;;15.83;26.97;100380.69;12204014;19;19928;-77
2022/03/09 15:31:53;;;;;;;;;;;;;;;15.48;27.07;100380.19;12187097;19;19911;-78
2022/03/09 15:35:56;;;;;;;;;;;;;;;14.98;27.28;100378.72;12196991;19;22995;-78
2022/03/09 15:39:58;;;;;;;;;;;;;;;14.48;27.63;100379.88;12212841;19;19915;-78
2022/03/09 15:44:00;;;;;;;;;;;;;;;14.40;27.53;100374.84;12181070;19;20289;-79
2022/03/09 15:48:19;;;;;;;;;;;;;;;14.19;27.70;100379.31;12202422;19;19917;-78
2022/03/09 15:52:26;;;;;;;;;;;;;;;13.81;27.63;100380.25;12195050;19;19919;-78
2022/03/09 15:56:32;;;;;;;;;;;;;;;13.25;28.47;100384.97;12198759;19;19943;-78
2022/03/09 16:00:37;;;;;;;;;;;;;;;12.93;28.83;100385.56;12214957;19;20458;-78
2022/03/09 16:04:39;;;;;;;;;;;;;;;12.76;28.98;100386.41;12187005;19;20258;-78
2022/03/09 16:08:46;;;;;;;;;;;;;;;12.57;29.11;100376.66;12209031;19;19918;-79
2022/03/09 16:12:48;;;;;;;;;;;;;;;12.41;29.55;100385.75;12206100;19;19919;-79
2022/03/09 16:16:50;;;;;;;;;;;;;;;12.28;29.75;100384.13;12186853;19;19926;-79
2022/03/09 16:20:53;;;;;;;;;;;;;;;12.19;29.60;100378.16;12208930;19;19930;-77
2022/03/09 16:24:56;;;;;;;;;;;;;;;12.15;29.79;100387.19;12205497;19;19931;-77
2022/03/09 16:28:58;;;;;;;;;;;;;;;12.02;29.82;100391.94;12180548;19;19911;-79
2022/03/09 16:33:00;;;;;;;;;;;;;;;11.93;30.00;100403.59;12200841;19;19919;-79
2022/03/09 16:37:02;;;;;;;;;;;;;;;11.88;30.06;100403.50;12197243;19;19966;-79
2022/03/09 16:41:04;;;;;;;;;;;;;;;11.82;30.09;100408.88;12185774;19;20660;-77
2022/03/09 16:45:10;;;;;;;;;;;;;;;11.78;30.19;100402.16;12200041;19;20337;-78
2022/03/09 16:49:12;;;;;;;;;;;;;;;11.68;30.54;100404.69;12204231;19;19919;-79
2022/03/09 16:53:15;;;;;;;;;;;;;;;11.58;30.60;100402.56;12183406;19;19943;-79
2022/03/09 16:57:20;;;;;;;;;;;;;;;11.47;30.62;100413.59;12214400;19;19925;-79
2022/03/09 17:01:27;;;;;;;;;;;;;;;11.36;30.70;100418.91;12204104;19;19918;-78
2022/03/09 17:05:29;;;;;;;;;;;;;;;11.36;31.03;100416.13;12190980;19;19915;-77
2022/03/09 17:09:35;;;;;;;;;;;;;;;11.23;31.60;100423.81;12199626;19;19929;-77
2022/03/09 17:13:37;;;;;;;;;;;;;;;10.93;31.83;100430.25;12183353;19;19921;-77
2022/03/09 17:17:45;;;;;;;;;;;;;;;10.43;32.42;100428.66;12210853;19;19918;-77
2022/03/09 17:21:48;;;;;;;;;;;;;;;10.03;33.01;100431.09;12202181;19;19911;-77
2022/03/09 17:25:50;;;;;;;;;;;;;;;9.69;33.38;100438.06;12176825;19;19931;-78
2022/03/09 17:29:51;;;;;;;;;;;;;;;9.36;33.80;100439.25;12203407;19;19914;-77
2022/03/09 17:33:53;;;;;;;;;;;;;;;9.06;34.08;100455.59;12191791;19;19999;-76
2022/03/09 17:37:55;;;;;;;;;;;;;;;8.75;34.38;100454.56;12185949;19;19979;-77
2022/03/09 17:41:56;;;;;;;;;;;;;;;8.50;34.77;100460.00;12198951;19;19994;-77
2022/03/09 17:45:58;;;;;;;;;;;;;;;8.25;34.92;100468.13;12200742;19;19915;-77
2022/03/09 17:50:00;;;;;;;;;;;;;;;8.05;35.41;100476.44;12187980;19;19902;-79
2022/03/09 17:58:43;;;;;;;;;;;;;;;7.66;35.92;100485.66;12202477;19;19934;-79
2022/03/09 18:13:06;;;;;;;;;;;;;;;7.13;36.57;100497.50;12205753;19;19999;-78
2022/03/09 18:17:40;;;;;;;;;;;;;;;6.98;36.92;100500.44;12202439;19;19917;-79
2022/03/09 18:21:42;;;;;;;;;;;;;;;6.87;37.26;100495.63;12198884;19;19974;-80
2022/03/09 18:25:43;;;;;;;;;;;;;;;6.75;37.41;100498.13;12179635;19;19921;-78
2022/03/09 18:29:45;;;;;;;;;;;;;;;6.68;37.63;100496.41;12209345;19;19927;-80
2022/03/09 18:33:47;;;;;;;;;;;;;;;6.61;37.82;100497.25;12220644;19;19978;-79
2022/03/09 18:37:49;;;;;;;;;;;;;;;6.53;37.97;100491.94;12194996;19;19936;-78
2022/03/09 18:41:50;;;;;;;;;;;;;;;6.45;38.25;100492.13;12207090;19;19954;-78
2022/03/09 18:45:52;;;;;;;;;;;;;;;6.36;38.56;100505.16;12214448;19;19915;-79
2022/03/09 18:49:54;;;;;;;;;;;;;;;6.29;38.87;100506.19;12193649;19;20521;-79
2022/03/09 18:53:56;;;;;;;;;;;;;;;6.22;38.78;100506.19;12212991;19;19910;-78
2022/03/09 18:57:58;;;;;;;;;;;;;;;6.12;39.23;100492.00;12222578;19;19996;-78
2022/03/09 19:02:09;;;;;;;;;;;;;;;6.03;39.48;100495.97;12145693;19;19918;-78
2022/03/09 19:36:49;;;;;;;;;;;;;;;5.77;40.29;100513.06;12203605;19;20033;-78
2022/03/09 19:51:51;;;;;;;;;;;;;;;5.53;40.88;100514.38;12215145;19;19929;-80
2022/03/09 19:57:14;;;;;;;;;;;;;;;5.45;41.12;100516.22;12206167;19;19929;-79
2022/03/09 20:02:27;;;;;;;;;;;;;;;5.40;41.14;100515.13;12170072;19;19914;-79
2022/03/09 20:07:17;;;;;;;;;;;;;;;5.31;41.32;100516.31;12241304;19;19951;-78
2022/03/09 20:12:00;;;;;;;;;;;;;;;5.24;41.51;100521.75;12242914;19;19945;-79
2022/03/09 20:17:09;;;;;;;;;;;;;;;5.18;41.68;100531.56;12209256;19;20469;-79
2022/03/09 20:27:37;;;;;;;;;;;;;;;5.01;42.16;100528.25;12158857;19;20042;-79
2022/03/09 20:37:01;;;;;;;;;;;;;;;4.90;42.38;100536.97;12204288;19;19940;-79
2022/03/09 20:46:01;;;;;;;;;;;;;;;4.81;42.47;100538.13;12206208;19;19956;-78
2022/03/09 20:50:51;;;;;;;;;;;;;;;4.75;42.85;100531.56;12208113;19;19906;-79
2022/03/09 21:04:16;;;;;;;;;;;;;;;4.56;43.40;100530.34;12200973;19;19914;-78
2022/03/09 21:08:45;;;;;;;;;;;;;;;4.50;43.76;100542.03;12149561;19;20313;-78
2022/03/09 21:13:09;;;;;;;;;;;;;;;4.48;43.36;100537.78;12221573;19;19927;-79
2022/03/09 21:17:11;;;;;;;;;;;;;;;4.49;43.69;100537.63;12183828;19;19918;-79
2022/03/09 21:21:14;;;;;;;;;;;;;;;4.52;43.49;100539.97;12196313;19;20338;-79
2022/03/09 21:25:16;;;;;;;;;;;;;;;4.52;43.55;100533.63;12203854;19;19999;-78
2022/03/09 21:29:18;;;;;;;;;;;;;;;4.49;44.16;100545.81;12176861;19;19965;-79
2022/03/09 21:33:22;;;;;;;;;;;;;;;4.34;44.63;100545.84;12208705;19;19933;-78
2022/03/09 21:37:28;;;;;;;;;;;;;;;4.25;44.52;100546.97;12182088;19;19929;-79
2022/03/09 21:41:31;;;;;;;;;;;;;;;4.17;44.82;100540.78;12206486;19;19941;-79
2022/03/09 21:45:33;;;;;;;;;;;;;;;4.18;44.73;100537.00;12201712;19;19936;-79
2022/03/09 21:49:35;;;;;;;;;;;;;;;4.20;44.49;100534.94;12180758;19;19915;-79
2022/03/09 21:53:41;;;;;;;;;;;;;;;4.27;44.54;100541.31;12202244;19;20375;-79
2022/03/09 21:57:42;;;;;;;;;;;;;;;4.25;44.99;100529.75;12204335;19;19932;-79
2022/03/09 22:01:44;;;;;;;;;;;;;;;4.09;45.23;100539.84;12181142;19;19990;-81
2022/03/09 22:05:46;;;;;;;;;;;;;;;3.98;45.84;100537.56;12200907;19;20248;-80
2022/03/09 22:09:48;;;;;;;;;;;;;;;3.82;46.36;100545.97;12211351;19;19982;-79
2022/03/09 22:13:49;;;;;;;;;;;;;;;3.69;46.52;100537.59;12176023;19;20007;-80
2022/03/09 22:17:51;;;;;;;;;;;;;;;3.63;46.25;100534.59;12208990;19;19911;-80
2022/03/09 22:21:54;;;;;;;;;;;;;;;3.71;45.86;100538.25;12205775;19;20325;-80
2022/03/09 22:25:56;;;;;;;;;;;;;;;3.81;45.56;100536.09;12183331;19;19970;-79
2022/03/09 22:29:57;;;;;;;;;;;;;;;3.91;45.47;100531.19;12203466;19;19981;-78
2022/03/09 22:33:59;;;;;;;;;;;;;;;3.82;46.95;100537.78;12202211;19;19922;-82
2022/03/09 22:38:01;;;;;;;;;;;;;;;3.70;46.78;100539.28;12183509;19;19924;-80
2022/03/09 22:42:03;;;;;;;;;;;;;;;3.53;48.21;100536.72;12186982;19;19915;-80